sensor_id;sensor_type;location;lat;lon;timestamp;temperature;humidity
9668;DHT22;4872;48.316;10.650;2022-10-17T04:13:14;10.60;99.90
9668;DHT22;4872;48.316;10.650;2022-10-17T04:15:40;10.60;99.90
9668;DHT22;4872;48.316;10.650;2022-10-17T04:18:07;10.70;99.90
9668;DHT22;4872;48.316;10.650;2022-10-17T04:20:34;10.60;99.90
9668;DHT22;4872;48.316;10.650;2022-10-17T04:23:01;10.80;99.90
9668;DHT22;4872;48.316;10.650;2022-10-17T04:25:28;10.60;99.90
9668;DHT22;4872;48.316;10.650;2022-10-17T04:27:54;10.60;99.90
9668;DHT22;4872;48.316;10.650;2022-10-17T04:30:23;10.60;99.90
9668;DHT22;4872;48.316;10.650;2022-10-17T04:32:49;10.60;99.90
9668;DHT22;4872;48.316;10.650;2022-10-17T04:35:16;10.60;99.90
9668;DHT22;4872;48.316;10.650;2022-10-17T04:37:43;10.70;99.90
9668;DHT22;4872;48.316;10.650;2022-10-17T04:40:10;10.70;99.90
9668;DHT22;4872;48.316;10.650;2022-10-17T04:42:37;10.60;99.90
9668;DHT22;4872;48.316;10.650;2022-10-17T04:45:05;10.70;99.90
9668;DHT22;4872;48.316;10.650;2022-10-17T04:47:34;10.70;99.90
9668;DHT22;4872;48.316;10.650;2022-10-17T04:50:01;10.60;99.90
9668;DHT22;4872;48.316;10.650;2022-10-17T04:52:28;10.70;99.90
9668;DHT22;4872;48.316;10.650;2022-10-17T04:54:56;10.70;99.90
9668;DHT22;4872;48.316;10.650;2022-10-17T04:57:23;10.60;99.90
9668;DHT22;4872;48.316;10.650;2022-10-17T04:59:50;10.60;99.90
9668;DHT22;4872;48.316;10.650;2022-10-17T05:02:17;10.50;99.90
9668;DHT22;4872;48.316;10.650;2022-10-17T05:04:45;10.60;99.90
9668;DHT22;4872;48.316;10.650;2022-10-17T05:07:12;10.60;99.90
9668;DHT22;4872;48.316;10.650;2022-10-17T05:09:38;10.50;99.90
9668;DHT22;4872;48.316;10.650;2022-10-17T05:12:05;10.40;99.90
9668;DHT22;4872;48.316;10.650;2022-10-17T05:14:32;10.60;99.90
9668;DHT22;4872;48.316;10.650;2022-10-17T05:16:59;10.40;99.90
9668;DHT22;4872;48.316;10.650;2022-10-17T05:19:25;10.50;99.90
9668;DHT22;4872;48.316;10.650;2022-10-17T05:21:54;10.50;99.90
9668;DHT22;4872;48.316;10.650;2022-10-17T05:24:20;10.50;99.90
9668;DHT22;4872;48.316;10.650;2022-10-17T05:26:49;10.40;99.90
9668;DHT22;4872;48.316;10.650;2022-10-17T05:29:15;10.40;99.90
9668;DHT22;4872;48.316;10.650;2022-10-17T05:31:42;10.30;99.90
9668;DHT22;4872;48.316;10.650;2022-10-17T05:34:09;10.40;99.90
9668;DHT22;4872;48.316;10.650;2022-10-17T05:36:36;10.30;99.90
9668;DHT22;4872;48.316;10.650;2022-10-17T05:39:04;10.40;99.90
9668;DHT22;4872;48.316;10.650;2022-10-17T05:41:31;10.40;99.90
9668;DHT22;4872;48.316;10.650;2022-10-17T05:43:57;10.40;99.90
9668;DHT22;4872;48.316;10.650;2022-10-17T05:46:24;10.30;99.90
9668;DHT22;4872;48.316;10.650;2022-10-17T05:48:52;10.30;99.90
9668;DHT22;4872;48.316;10.650;2022-10-17T05:51:20;10.30;99.90
9668;DHT22;4872;48.316;10.650;2022-10-17T05:53:46;10.20;99.90
9668;DHT22;4872;48.316;10.650;2022-10-17T05:56:15;10.30;99.90
9668;DHT22;4872;48.316;10.650;2022-10-17T05:58:42;10.20;99.90
9668;DHT22;4872;48.316;10.650;2022-10-17T06:01:11;10.20;99.90
9668;DHT22;4872;48.316;10.650;2022-10-17T06:03:38;10.30;99.90
9668;DHT22;4872;48.316;10.650;2022-10-17T06:06:07;10.20;99.90
9668;DHT22;4872;48.316;10.650;2022-10-17T06:08:34;10.30;99.90
9668;DHT22;4872;48.316;10.650;2022-10-17T06:11:00;10.20;99.90
9668;DHT22;4872;48.316;10.650;2022-10-17T06:13:29;10.30;99.90
9668;DHT22;4872;48.316;10.650;2022-10-17T06:15:56;10.30;99.90
9668;DHT22;4872;48.316;10.650;2022-10-17T06:18:23;10.30;99.90
9668;DHT22;4872;48.316;10.650;2022-10-17T06:20:51;10.40;99.90
9668;DHT22;4872;48.316;10.650;2022-10-17T06:23:18;10.40;99.90
9668;DHT22;4872;48.316;10.650;2022-10-17T06:25:44;10.30;99.90
9668;DHT22;4872;48.316;10.650;2022-10-17T06:28:11;10.50;99.90
9668;DHT22;4872;48.316;10.650;2022-10-17T06:30:40;10.40;99.90
9668;DHT22;4872;48.316;10.650;2022-10-17T06:33:07;10.50;99.90
9668;DHT22;4872;48.316;10.650;2022-10-17T06:35:33;10.40;99.90
9668;DHT22;4872;48.316;10.650;2022-10-17T06:38:00;10.40;99.90
9668;DHT22;4872;48.316;10.650;2022-10-17T06:40:28;10.50;99.90
9668;DHT22;4872;48.316;10.650;2022-10-17T06:42:55;10.60;99.90
9668;DHT22;4872;48.316;10.650;2022-10-17T06:45:23;10.70;99.90
9668;DHT22;4872;48.316;10.650;2022-10-17T06:47:51;10.70;99.90
9668;DHT22;4872;48.316;10.650;2022-10-17T06:50:18;10.70;99.90
9668;DHT22;4872;48.316;10.650;2022-10-17T06:52:44;10.60;99.90
9668;DHT22;4872;48.316;10.650;2022-10-17T06:55:11;10.50;99.90
9668;DHT22;4872;48.316;10.650;2022-10-17T06:57:38;10.60;99.90
9668;DHT22;4872;48.316;10.650;2022-10-17T07:00:06;10.80;99.90
9668;DHT22;4872;48.316;10.650;2022-10-17T07:02:33;10.80;99.90
9668;DHT22;4872;48.316;10.650;2022-10-17T07:05:01;10.90;99.90
9668;DHT22;4872;48.316;10.650;2022-10-17T07:07:29;11.10;99.90
9668;DHT22;4872;48.316;10.650;2022-10-17T07:09:56;11.20;99.90
9668;DHT22;4872;48.316;10.650;2022-10-17T07:12:24;11.30;99.90
9668;DHT22;4872;48.316;10.650;2022-10-17T07:14:50;11.30;99.90
9668;DHT22;4872;48.316;10.650;2022-10-17T07:17:17;11.60;99.90
9668;DHT22;4872;48.316;10.650;2022-10-17T07:19:44;11.60;99.90
9668;DHT22;4872;48.316;10.650;2022-10-17T07:22:12;11.70;99.90
9668;DHT22;4872;48.316;10.650;2022-10-17T07:24:39;11.80;99.90
9668;DHT22;4872;48.316;10.650;2022-10-17T07:27:06;11.90;99.90
9668;DHT22;4872;48.316;10.650;2022-10-17T07:29:33;12.10;99.90
9668;DHT22;4872;48.316;10.650;2022-10-17T07:31:59;12.00;99.90
9668;DHT22;4872;48.316;10.650;2022-10-17T07:34:28;12.10;99.90
9668;DHT22;4872;48.316;10.650;2022-10-17T07:36:56;12.30;99.90
9668;DHT22;4872;48.316;10.650;2022-10-17T07:39:24;12.40;99.90
9668;DHT22;4872;48.316;10.650;2022-10-17T07:41:51;12.50;99.90
9668;DHT22;4872;48.316;10.650;2022-10-17T07:44:18;12.60;99.90
9668;DHT22;4872;48.316;10.650;2022-10-17T07:46:44;12.70;99.90
9668;DHT22;4872;48.316;10.650;2022-10-17T07:49:11;12.90;99.90
9668;DHT22;4872;48.316;10.650;2022-10-17T07:51:38;12.90;99.90
9668;DHT22;4872;48.316;10.650;2022-10-17T07:54:05;13.00;99.90
9668;DHT22;4872;48.316;10.650;2022-10-17T07:56:33;13.10;99.90
9668;DHT22;4872;48.316;10.650;2022-10-17T07:59:00;13.10;99.90
9668;DHT22;4872;48.316;10.650;2022-10-17T08:01:27;13.30;99.90
9668;DHT22;4872;48.316;10.650;2022-10-17T08:03:54;13.40;99.90
9668;DHT22;4872;48.316;10.650;2022-10-17T08:06:20;13.40;99.90
9668;DHT22;4872;48.316;10.650;2022-10-17T08:08:47;13.50;99.90
9668;DHT22;4872;48.316;10.650;2022-10-17T08:11:15;13.60;99.90
9668;DHT22;4872;48.316;10.650;2022-10-17T08:13:43;13.60;99.90
9668;DHT22;4872;48.316;10.650;2022-10-17T08:16:11;13.70;99.90
9668;DHT22;4872;48.316;10.650;2022-10-17T08:18:40;13.80;99.90
9668;DHT22;4872;48.316;10.650;2022-10-17T08:21:08;13.90;99.90
9668;DHT22;4872;48.316;10.650;2022-10-17T08:23:35;13.90;99.90
9668;DHT22;4872;48.316;10.650;2022-10-17T08:26:03;14.00;99.90
9668;DHT22;4872;48.316;10.650;2022-10-17T08:28:33;14.10;99.90
9668;DHT22;4872;48.316;10.650;2022-10-17T08:31:06;14.00;99.90
9668;DHT22;4872;48.316;10.650;2022-10-17T08:33:34;14.30;99.90
9668;DHT22;4872;48.316;10.650;2022-10-17T08:36:01;14.30;99.90
9668;DHT22;4872;48.316;10.650;2022-10-17T08:38:29;14.40;99.90
9668;DHT22;4872;48.316;10.650;2022-10-17T08:40:59;14.50;99.90
9668;DHT22;4872;48.316;10.650;2022-10-17T08:43:33;14.60;99.90
9668;DHT22;4872;48.316;10.650;2022-10-17T08:46:04;14.70;99.90
9668;DHT22;4872;48.316;10.650;2022-10-17T08:48:37;14.80;99.90
9668;DHT22;4872;48.316;10.650;2022-10-17T08:51:09;14.90;99.90
9668;DHT22;4872;48.316;10.650;2022-10-17T08:53:40;15.00;99.90
9668;DHT22;4872;48.316;10.650;2022-10-17T08:56:15;15.10;99.90
9668;DHT22;4872;48.316;10.650;2022-10-17T08:58:43;15.20;99.90
9668;DHT22;4872;48.316;10.650;2022-10-17T09:01:21;15.30;99.90
9668;DHT22;4872;48.316;10.650;2022-10-17T09:04:02;15.50;99.90
9668;DHT22;4872;48.316;10.650;2022-10-17T09:06:35;15.50;99.90
9668;DHT22;4872;48.316;10.650;2022-10-17T09:09:15;15.60;99.90
9668;DHT22;4872;48.316;10.650;2022-10-17T09:11:55;15.60;99.90
9668;DHT22;4872;48.316;10.650;2022-10-17T09:14:33;15.70;99.90
9668;DHT22;4872;48.316;10.650;2022-10-17T09:17:14;15.80;99.90
9668;DHT22;4872;48.316;10.650;2022-10-17T09:19:50;15.90;99.90
9668;DHT22;4872;48.316;10.650;2022-10-17T09:22:23;16.00;99.90
9668;DHT22;4872;48.316;10.650;2022-10-17T09:24:54;16.10;99.90
9668;DHT22;4872;48.316;10.650;2022-10-17T09:27:24;16.30;99.90
9668;DHT22;4872;48.316;10.650;2022-10-17T09:29:54;16.40;99.90
9668;DHT22;4872;48.316;10.650;2022-10-17T09:32:24;16.50;99.90
9668;DHT22;4872;48.316;10.650;2022-10-17T09:34:53;16.60;99.90
9668;DHT22;4872;48.316;10.650;2022-10-17T09:37:25;16.80;99.90
9668;DHT22;4872;48.316;10.650;2022-10-17T09:39:55;16.90;99.90
9668;DHT22;4872;48.316;10.650;2022-10-17T09:42:25;17.00;99.90
9668;DHT22;4872;48.316;10.650;2022-10-17T09:44:56;17.10;99.90
9668;DHT22;4872;48.316;10.650;2022-10-17T09:47:30;17.20;99.90
9668;DHT22;4872;48.316;10.650;2022-10-17T09:50:01;17.30;99.90
9668;DHT22;4872;48.316;10.650;2022-10-17T09:52:32;17.40;99.90
9668;DHT22;4872;48.316;10.650;2022-10-17T09:55:02;17.50;99.90
9668;DHT22;4872;48.316;10.650;2022-10-17T09:57:51;17.60;99.90
9668;DHT22;4872;48.316;10.650;2022-10-17T10:00:20;17.70;99.90
9668;DHT22;4872;48.316;10.650;2022-10-17T10:02:47;17.70;99.90
9668;DHT22;4872;48.316;10.650;2022-10-17T10:05:17;17.80;99.90
9668;DHT22;4872;48.316;10.650;2022-10-17T10:08:00;17.90;99.90
9668;DHT22;4872;48.316;10.650;2022-10-17T10:10:28;18.00;99.90
9668;DHT22;4872;48.316;10.650;2022-10-17T10:13:05;18.10;99.90
9668;DHT22;4872;48.316;10.650;2022-10-17T10:15:35;18.10;99.90
9668;DHT22;4872;48.316;10.650;2022-10-17T10:18:30;18.20;99.90
9668;DHT22;4872;48.316;10.650;2022-10-17T10:21:08;18.30;99.90
9668;DHT22;4872;48.316;10.650;2022-10-17T10:23:36;18.40;99.90
9668;DHT22;4872;48.316;10.650;2022-10-17T10:26:20;18.40;99.90
9668;DHT22;4872;48.316;10.650;2022-10-17T10:28:53;18.50;99.90
9668;DHT22;4872;48.316;10.650;2022-10-17T10:31:32;18.50;99.90
9668;DHT22;4872;48.316;10.650;2022-10-17T10:34:02;18.60;99.90
9668;DHT22;4872;48.316;10.650;2022-10-17T10:37:00;18.80;99.90
9668;DHT22;4872;48.316;10.650;2022-10-17T10:39:36;18.90;99.90
9668;DHT22;4872;48.316;10.650;2022-10-17T10:42:06;19.00;99.90
9668;DHT22;4872;48.316;10.650;2022-10-17T10:44:36;19.10;99.90
9668;DHT22;4872;48.316;10.650;2022-10-17T10:47:18;19.20;99.90
9668;DHT22;4872;48.316;10.650;2022-10-17T10:49:45;19.40;99.90
9668;DHT22;4872;48.316;10.650;2022-10-17T10:52:21;19.50;99.90
9668;DHT22;4872;48.316;10.650;2022-10-17T10:55:06;19.60;99.90
9668;DHT22;4872;48.316;10.650;2022-10-17T10:57:40;19.60;99.90
9668;DHT22;4872;48.316;10.650;2022-10-17T11:00:14;19.60;99.90
9668;DHT22;4872;48.316;10.650;2022-10-17T11:02:47;19.70;99.90
9668;DHT22;4872;48.316;10.650;2022-10-17T11:05:21;19.70;99.90
9668;DHT22;4872;48.316;10.650;2022-10-17T11:07:55;19.70;99.90
9668;DHT22;4872;48.316;10.650;2022-10-17T11:10:32;19.80;99.90
9668;DHT22;4872;48.316;10.650;2022-10-17T11:13:04;19.90;99.90
9668;DHT22;4872;48.316;10.650;2022-10-17T11:15:36;19.90;99.90
9668;DHT22;4872;48.316;10.650;2022-10-17T11:18:07;20.00;99.90
9668;DHT22;4872;48.316;10.650;2022-10-17T11:20:43;20.10;99.90
9668;DHT22;4872;48.316;10.650;2022-10-17T11:23:19;20.20;99.90
9668;DHT22;4872;48.316;10.650;2022-10-17T11:25:50;20.30;99.90
9668;DHT22;4872;48.316;10.650;2022-10-17T11:28:20;20.40;99.90
9668;DHT22;4872;48.316;10.650;2022-10-17T11:30:51;20.50;99.90
9668;DHT22;4872;48.316;10.650;2022-10-17T11:33:26;20.50;99.80
9668;DHT22;4872;48.316;10.650;2022-10-17T11:35:58;20.50;99.90
9668;DHT22;4872;48.316;10.650;2022-10-17T11:38:38;20.60;99.90
9668;DHT22;4872;48.316;10.650;2022-10-17T11:41:12;20.70;99.90
9668;DHT22;4872;48.316;10.650;2022-10-17T11:43:44;21.00;99.90
9668;DHT22;4872;48.316;10.650;2022-10-17T11:46:15;21.10;99.60
9668;DHT22;4872;48.316;10.650;2022-10-17T11:48:54;21.20;99.30
9668;DHT22;4872;48.316;10.650;2022-10-17T11:51:21;21.40;99.30
9668;DHT22;4872;48.316;10.650;2022-10-17T11:53:54;21.50;98.40
9668;DHT22;4872;48.316;10.650;2022-10-17T11:56:27;21.60;98.10
9668;DHT22;4872;48.316;10.650;2022-10-17T11:59:08;21.80;98.30
9668;DHT22;4872;48.316;10.650;2022-10-17T12:01:39;22.00;98.00
9668;DHT22;4872;48.316;10.650;2022-10-17T12:04:18;22.30;97.60
9668;DHT22;4872;48.316;10.650;2022-10-17T12:06:55;22.40;97.20
9668;DHT22;4872;48.316;10.650;2022-10-17T12:09:33;22.60;97.40
9668;DHT22;4872;48.316;10.650;2022-10-17T12:12:06;22.80;97.40
9668;DHT22;4872;48.316;10.650;2022-10-17T12:14:41;22.80;97.00
9668;DHT22;4872;48.316;10.650;2022-10-17T12:17:27;22.90;97.10
9668;DHT22;4872;48.316;10.650;2022-10-17T12:20:16;23.30;97.00
9668;DHT22;4872;48.316;10.650;2022-10-17T12:22:51;23.40;96.40
9668;DHT22;4872;48.316;10.650;2022-10-17T12:25:21;23.50;96.60
9668;DHT22;4872;48.316;10.650;2022-10-17T12:27:50;23.60;96.20
9668;DHT22;4872;48.316;10.650;2022-10-17T12:30:22;23.70;96.30
9668;DHT22;4872;48.316;10.650;2022-10-17T12:33:02;24.00;96.40
9668;DHT22;4872;48.316;10.650;2022-10-17T12:35:31;24.20;96.00
9668;DHT22;4872;48.316;10.650;2022-10-17T12:41:04;24.30;95.60
9668;DHT22;4872;48.316;10.650;2022-10-17T12:43:45;24.20;95.00
9668;DHT22;4872;48.316;10.650;2022-10-17T12:46:12;24.40;95.00
9668;DHT22;4872;48.316;10.650;2022-10-17T12:49:03;24.40;94.70
9668;DHT22;4872;48.316;10.650;2022-10-17T12:54:51;24.80;94.70
9668;DHT22;4872;48.316;10.650;2022-10-17T12:57:21;25.00;94.50
9668;DHT22;4872;48.316;10.650;2022-10-17T12:59:51;25.20;94.00
9668;DHT22;4872;48.316;10.650;2022-10-17T13:02:22;25.20;94.10
9668;DHT22;4872;48.316;10.650;2022-10-17T13:04:56;25.10;93.70
9668;DHT22;4872;48.316;10.650;2022-10-17T13:07:24;25.10;94.10
9668;DHT22;4872;48.316;10.650;2022-10-17T13:09:51;25.10;93.90
9668;DHT22;4872;48.316;10.650;2022-10-17T13:12:22;24.90;93.80
9668;DHT22;4872;48.316;10.650;2022-10-17T13:14:52;24.90;93.60
9668;DHT22;4872;48.316;10.650;2022-10-17T13:17:23;24.80;93.20
9668;DHT22;4872;48.316;10.650;2022-10-17T13:19:52;24.80;92.80
9668;DHT22;4872;48.316;10.650;2022-10-17T13:22:20;24.80;93.10
9668;DHT22;4872;48.316;10.650;2022-10-17T13:24:48;24.90;93.10
9668;DHT22;4872;48.316;10.650;2022-10-17T13:27:24;24.90;93.50
9668;DHT22;4872;48.316;10.650;2022-10-17T13:29:51;24.70;93.40
9668;DHT22;4872;48.316;10.650;2022-10-17T13:32:21;24.80;93.30
9668;DHT22;4872;48.316;10.650;2022-10-17T13:35:10;24.80;93.20
9668;DHT22;4872;48.316;10.650;2022-10-17T13:37:39;24.80;92.20
9668;DHT22;4872;48.316;10.650;2022-10-17T13:40:11;24.80;91.50
9668;DHT22;4872;48.316;10.650;2022-10-17T13:42:40;24.80;91.90
9668;DHT22;4872;48.316;10.650;2022-10-17T13:45:15;24.90;92.10
9668;DHT22;4872;48.316;10.650;2022-10-17T13:47:43;24.90;92.20
9668;DHT22;4872;48.316;10.650;2022-10-17T13:50:20;24.90;92.40
9668;DHT22;4872;48.316;10.650;2022-10-17T13:53:05;25.20;92.40
9668;DHT22;4872;48.316;10.650;2022-10-17T13:55:32;25.40;91.50
9668;DHT22;4872;48.316;10.650;2022-10-17T13:58:08;25.80;91.20
9668;DHT22;4872;48.316;10.650;2022-10-17T14:00:35;26.00;90.90
9668;DHT22;4872;48.316;10.650;2022-10-17T14:03:03;26.20;91.20
9668;DHT22;4872;48.316;10.650;2022-10-17T14:05:32;26.30;90.40
9668;DHT22;4872;48.316;10.650;2022-10-17T14:08:00;26.60;90.60
9668;DHT22;4872;48.316;10.650;2022-10-17T14:10:31;26.90;90.10
9668;DHT22;4872;48.316;10.650;2022-10-17T14:12:59;27.10;89.80
9668;DHT22;4872;48.316;10.650;2022-10-17T14:15:27;27.30;90.00
9668;DHT22;4872;48.316;10.650;2022-10-17T14:17:57;27.70;88.20
9668;DHT22;4872;48.316;10.650;2022-10-17T14:20:25;28.00;86.80
9668;DHT22;4872;48.316;10.650;2022-10-17T14:22:55;28.20;85.90
9668;DHT22;4872;48.316;10.650;2022-10-17T14:25:27;28.20;85.00
9668;DHT22;4872;48.316;10.650;2022-10-17T14:27:59;28.30;84.80
9668;DHT22;4872;48.316;10.650;2022-10-17T14:30:33;28.30;83.60
9668;DHT22;4872;48.316;10.650;2022-10-17T14:33:12;28.30;82.90
9668;DHT22;4872;48.316;10.650;2022-10-17T14:35:48;28.40;83.10
9668;DHT22;4872;48.316;10.650;2022-10-17T14:38:18;28.60;82.20
9668;DHT22;4872;48.316;10.650;2022-10-17T14:40:49;28.60;82.50
9668;DHT22;4872;48.316;10.650;2022-10-17T14:43:20;28.60;81.40
9668;DHT22;4872;48.316;10.650;2022-10-17T14:45:48;28.70;81.80
9668;DHT22;4872;48.316;10.650;2022-10-17T14:48:17;28.60;80.40
9668;DHT22;4872;48.316;10.650;2022-10-17T14:51:04;28.60;81.00
9668;DHT22;4872;48.316;10.650;2022-10-17T14:53:32;28.50;80.80
9668;DHT22;4872;48.316;10.650;2022-10-17T14:56:01;28.50;80.40
9668;DHT22;4872;48.316;10.650;2022-10-17T14:58:31;28.60;80.10
9668;DHT22;4872;48.316;10.650;2022-10-17T15:01:00;28.40;80.10
9668;DHT22;4872;48.316;10.650;2022-10-17T15:03:27;28.10;80.70
9668;DHT22;4872;48.316;10.650;2022-10-17T15:05:54;27.80;80.30
9668;DHT22;4872;48.316;10.650;2022-10-17T15:08:22;27.60;80.70
9668;DHT22;4872;48.316;10.650;2022-10-17T15:10:51;27.30;82.10
9668;DHT22;4872;48.316;10.650;2022-10-17T15:13:18;27.10;84.00
9668;DHT22;4872;48.316;10.650;2022-10-17T15:15:45;27.00;84.20
9668;DHT22;4872;48.316;10.650;2022-10-17T15:18:15;26.80;84.40
9668;DHT22;4872;48.316;10.650;2022-10-17T15:20:42;26.40;86.50
9668;DHT22;4872;48.316;10.650;2022-10-17T15:23:09;26.10;88.30
9668;DHT22;4872;48.316;10.650;2022-10-17T15:25:36;25.80;88.10
9668;DHT22;4872;48.316;10.650;2022-10-17T15:28:05;25.60;88.70
9668;DHT22;4872;48.316;10.650;2022-10-17T15:30:35;25.30;89.30
9668;DHT22;4872;48.316;10.650;2022-10-17T15:33:02;25.10;89.60
9668;DHT22;4872;48.316;10.650;2022-10-17T15:35:29;24.90;90.30
9668;DHT22;4872;48.316;10.650;2022-10-17T15:37:56;24.50;91.30
9668;DHT22;4872;48.316;10.650;2022-10-17T15:40:25;24.20;91.90
9668;DHT22;4872;48.316;10.650;2022-10-17T15:42:53;23.80;92.70
9668;DHT22;4872;48.316;10.650;2022-10-17T15:45:22;23.50;92.90
9668;DHT22;4872;48.316;10.650;2022-10-17T15:47:50;23.30;93.70
9668;DHT22;4872;48.316;10.650;2022-10-17T15:50:18;23.00;94.10
9668;DHT22;4872;48.316;10.650;2022-10-17T15:52:46;22.80;94.40
9668;DHT22;4872;48.316;10.650;2022-10-17T15:55:16;22.60;94.70
9668;DHT22;4872;48.316;10.650;2022-10-17T15:57:44;22.40;95.40
9668;DHT22;4872;48.316;10.650;2022-10-17T16:00:15;22.20;95.50
9668;DHT22;4872;48.316;10.650;2022-10-17T16:02:44;22.00;95.80
9668;DHT22;4872;48.316;10.650;2022-10-17T16:05:14;21.80;96.40
9668;DHT22;4872;48.316;10.650;2022-10-17T16:07:41;21.50;96.70
9668;DHT22;4872;48.316;10.650;2022-10-17T16:10:10;21.40;97.10
9668;DHT22;4872;48.316;10.650;2022-10-17T16:12:37;21.20;97.40
9668;DHT22;4872;48.316;10.650;2022-10-17T16:15:06;21.00;97.70
9668;DHT22;4872;48.316;10.650;2022-10-17T16:17:33;20.80;97.80
9668;DHT22;4872;48.316;10.650;2022-10-17T16:20:02;20.60;97.90
9668;DHT22;4872;48.316;10.650;2022-10-17T16:22:30;20.40;98.00
9668;DHT22;4872;48.316;10.650;2022-10-17T16:24:58;20.30;98.20
9668;DHT22;4872;48.316;10.650;2022-10-17T16:27:32;20.10;98.50
9668;DHT22;4872;48.316;10.650;2022-10-17T16:29:59;20.00;98.90
9668;DHT22;4872;48.316;10.650;2022-10-17T16:32:25;19.90;99.20
9668;DHT22;4872;48.316;10.650;2022-10-17T16:34:52;19.80;99.40
9668;DHT22;4872;48.316;10.650;2022-10-17T16:37:20;19.70;99.60
9668;DHT22;4872;48.316;10.650;2022-10-17T16:39:47;19.60;99.80
9668;DHT22;4872;48.316;10.650;2022-10-17T16:42:16;19.50;99.90
9668;DHT22;4872;48.316;10.650;2022-10-17T16:44:43;19.30;99.90
9668;DHT22;4872;48.316;10.650;2022-10-17T16:47:10;19.20;99.90
9668;DHT22;4872;48.316;10.650;2022-10-17T16:49:37;19.10;99.90
9668;DHT22;4872;48.316;10.650;2022-10-17T16:52:04;19.00;99.90
9668;DHT22;4872;48.316;10.650;2022-10-17T16:54:33;19.00;99.90
9668;DHT22;4872;48.316;10.650;2022-10-17T16:57:00;18.90;99.90
9668;DHT22;4872;48.316;10.650;2022-10-17T16:59:26;18.80;99.90
9668;DHT22;4872;48.316;10.650;2022-10-17T17:01:54;18.70;99.90
9668;DHT22;4872;48.316;10.650;2022-10-17T17:04:21;18.60;99.90
9668;DHT22;4872;48.316;10.650;2022-10-17T17:06:47;18.60;99.90
9668;DHT22;4872;48.316;10.650;2022-10-17T17:09:14;18.50;99.90
9668;DHT22;4872;48.316;10.650;2022-10-17T17:11:42;18.50;99.90
9668;DHT22;4872;48.316;10.650;2022-10-17T17:14:10;18.40;99.90
9668;DHT22;4872;48.316;10.650;2022-10-17T17:16:37;18.40;99.90
9668;DHT22;4872;48.316;10.650;2022-10-17T17:19:06;18.30;99.90
9668;DHT22;4872;48.316;10.650;2022-10-17T17:21:34;18.20;99.90
9668;DHT22;4872;48.316;10.650;2022-10-17T17:24:02;18.10;99.90
9668;DHT22;4872;48.316;10.650;2022-10-17T17:26:31;18.10;99.90
9668;DHT22;4872;48.316;10.650;2022-10-17T17:29:01;18.00;99.90
9668;DHT22;4872;48.316;10.650;2022-10-17T17:31:30;17.90;99.90
9668;DHT22;4872;48.316;10.650;2022-10-17T17:33:58;17.80;99.90
9668;DHT22;4872;48.316;10.650;2022-10-17T17:36:26;17.80;99.90
9668;DHT22;4872;48.316;10.650;2022-10-17T17:38:55;17.80;99.90
9668;DHT22;4872;48.316;10.650;2022-10-17T17:41:22;17.70;99.90
9668;DHT22;4872;48.316;10.650;2022-10-17T17:43:50;17.70;99.90
9668;DHT22;4872;48.316;10.650;2022-10-17T17:46:19;17.70;99.90
9668;DHT22;4872;48.316;10.650;2022-10-17T17:48:47;17.70;99.90
9668;DHT22;4872;48.316;10.650;2022-10-17T17:51:17;17.60;99.90
9668;DHT22;4872;48.316;10.650;2022-10-17T17:53:44;17.60;99.90
9668;DHT22;4872;48.316;10.650;2022-10-17T17:56:13;17.50;99.90
9668;DHT22;4872;48.316;10.650;2022-10-17T17:58:41;17.50;99.90
9668;DHT22;4872;48.316;10.650;2022-10-17T18:01:11;17.50;99.90
9668;DHT22;4872;48.316;10.650;2022-10-17T18:03:40;17.40;99.90
9668;DHT22;4872;48.316;10.650;2022-10-17T18:06:07;17.40;99.90
9668;DHT22;4872;48.316;10.650;2022-10-17T18:08:34;17.40;99.90
9668;DHT22;4872;48.316;10.650;2022-10-17T18:11:02;17.40;99.90
9668;DHT22;4872;48.316;10.650;2022-10-17T18:13:29;17.40;99.90
9668;DHT22;4872;48.316;10.650;2022-10-17T18:15:57;17.30;99.90
9668;DHT22;4872;48.316;10.650;2022-10-17T18:18:24;17.20;99.90
9668;DHT22;4872;48.316;10.650;2022-10-17T18:20:53;17.20;99.90
9668;DHT22;4872;48.316;10.650;2022-10-17T18:23:20;17.20;99.90
9668;DHT22;4872;48.316;10.650;2022-10-17T18:25:53;17.10;99.90
9668;DHT22;4872;48.316;10.650;2022-10-17T18:28:20;17.00;99.90
9668;DHT22;4872;48.316;10.650;2022-10-17T18:30:47;17.00;99.90
9668;DHT22;4872;48.316;10.650;2022-10-17T18:33:14;17.00;99.90
9668;DHT22;4872;48.316;10.650;2022-10-17T18:35:41;17.00;99.90
9668;DHT22;4872;48.316;10.650;2022-10-17T18:38:09;16.90;99.90
9668;DHT22;4872;48.316;10.650;2022-10-17T18:40:36;16.80;99.90
9668;DHT22;4872;48.316;10.650;2022-10-17T18:43:03;16.80;99.90
9668;DHT22;4872;48.316;10.650;2022-10-17T18:45:30;16.70;99.90
9668;DHT22;4872;48.316;10.650;2022-10-17T18:47:57;16.70;99.90
9668;DHT22;4872;48.316;10.650;2022-10-17T18:50:24;16.60;99.90
9668;DHT22;4872;48.316;10.650;2022-10-17T18:52:51;16.50;99.90
9668;DHT22;4872;48.316;10.650;2022-10-17T18:55:19;16.50;99.90
9668;DHT22;4872;48.316;10.650;2022-10-17T18:57:46;16.40;99.90
9668;DHT22;4872;48.316;10.650;2022-10-17T19:00:14;16.40;99.90
9668;DHT22;4872;48.316;10.650;2022-10-17T19:02:42;16.30;99.90
9668;DHT22;4872;48.316;10.650;2022-10-17T19:05:09;16.30;99.90
9668;DHT22;4872;48.316;10.650;2022-10-17T19:07:39;16.30;99.90
9668;DHT22;4872;48.316;10.650;2022-10-17T19:10:06;16.30;99.90
9668;DHT22;4872;48.316;10.650;2022-10-17T19:12:34;16.20;99.90
9668;DHT22;4872;48.316;10.650;2022-10-17T19:15:01;16.10;99.90
9668;DHT22;4872;48.316;10.650;2022-10-17T19:17:28;16.00;99.90
9668;DHT22;4872;48.316;10.650;2022-10-17T19:19:55;15.90;99.90
9668;DHT22;4872;48.316;10.650;2022-10-17T19:22:21;15.90;99.90
9668;DHT22;4872;48.316;10.650;2022-10-17T19:24:48;15.80;99.90
9668;DHT22;4872;48.316;10.650;2022-10-17T19:27:15;15.70;99.90
9668;DHT22;4872;48.316;10.650;2022-10-17T19:29:46;15.70;99.90
9668;DHT22;4872;48.316;10.650;2022-10-17T19:32:13;15.70;99.90
9668;DHT22;4872;48.316;10.650;2022-10-17T19:34:39;15.50;99.90
9668;DHT22;4872;48.316;10.650;2022-10-17T19:37:06;15.50;99.90
9668;DHT22;4872;48.316;10.650;2022-10-17T19:39:33;15.40;99.90
9668;DHT22;4872;48.316;10.650;2022-10-17T19:42:00;15.40;99.90
9668;DHT22;4872;48.316;10.650;2022-10-17T19:44:27;15.40;99.90
9668;DHT22;4872;48.316;10.650;2022-10-17T19:46:55;15.40;99.90
9668;DHT22;4872;48.316;10.650;2022-10-17T19:49:23;15.30;99.90
9668;DHT22;4872;48.316;10.650;2022-10-17T19:51:50;15.30;99.90
9668;DHT22;4872;48.316;10.650;2022-10-17T19:54:16;15.30;99.90
9668;DHT22;4872;48.316;10.650;2022-10-17T19:56:45;15.30;99.90
9668;DHT22;4872;48.316;10.650;2022-10-17T19:59:13;15.20;99.90
9668;DHT22;4872;48.316;10.650;2022-10-17T20:01:41;15.20;99.90
9668;DHT22;4872;48.316;10.650;2022-10-17T20:04:09;15.20;99.90
9668;DHT22;4872;48.316;10.650;2022-10-17T20:06:37;15.10;99.90
9668;DHT22;4872;48.316;10.650;2022-10-17T20:09:05;15.10;99.90
9668;DHT22;4872;48.316;10.650;2022-10-17T20:11:31;15.00;99.90
9668;DHT22;4872;48.316;10.650;2022-10-17T20:13:59;14.90;99.90
9668;DHT22;4872;48.316;10.650;2022-10-17T20:16:30;14.90;99.90
9668;DHT22;4872;48.316;10.650;2022-10-17T20:19:02;14.90;99.90